Time;durP1;ratioP1;P1;durP2;ratioP2;P2;SDS_P1;SDS_P2;PMS_P1;PMS_P2;Temp;Humidity;BMP_temperature;BMP_pressure;BME280_temperature;BME280_humidity;BME280_pressure;Samples;Min_cycle;Max_cycle;Signal;HPM_P1;HPM_P2
2021/09/09 00:00:45;;;;;;;53.23;18.48;;;;;;;7.51;100.00;102005.41;1736668;82;21230;-91
2021/09/09 00:03:11;;;;;;;48.17;17.70;;;;;;;7.49;100.00;102007.98;1740600;82;21593;-90
2021/09/09 00:05:40;;;;;;;49.20;17.27;;;;;;;7.44;100.00;102010.44;1740519;82;21021;-90
2021/09/09 00:08:06;;;;;;;39.78;15.23;;;;;;;7.41;100.00;102008.16;1740470;82;21510;-89
2021/09/09 00:10:32;;;;;;;42.35;15.72;;;;;;;7.42;100.00;102007.97;1740619;81;20912;-90
2021/09/09 00:12:58;;;;;;;43.58;16.15;;;;;;;7.44;100.00;102009.09;1740618;81;21066;-91
2021/09/09 00:15:24;;;;;;;47.08;15.50;;;;;;;7.41;100.00;102010.35;1740576;82;21574;-91
2021/09/09 00:17:50;;;;;;;43.13;14.63;;;;;;;7.36;100.00;102007.97;1740612;81;20869;-91
2021/09/09 00:20:16;;;;;;;44.77;14.35;;;;;;;7.32;100.00;102008.05;1740639;82;20947;-91
2021/09/09 00:22:42;;;;;;;39.80;14.53;;;;;;;7.25;100.00;102011.54;1740499;82;20844;-91
2021/09/09 00:25:10;;;;;;;38.98;13.40;;;;;;;7.24;100.00;102015.78;1740627;82;21080;-92
2021/09/09 00:27:37;;;;;;;44.80;13.32;;;;;;;7.18;100.00;102016.07;1740410;82;21004;-91
2021/09/09 00:30:04;;;;;;;40.52;13.80;;;;;;;7.13;100.00;102022.55;1740575;81;20995;-92
2021/09/09 00:32:36;;;;;;;33.83;12.07;;;;;;;7.08;100.00;102020.15;1740502;82;21517;-91
2021/09/09 00:35:03;;;;;;;43.15;14.07;;;;;;;7.04;100.00;102020.55;1740536;82;21479;-92
2021/09/09 00:37:29;;;;;;;36.50;13.80;;;;;;;7.05;100.00;102020.03;1740354;81;21078;-91
2021/09/09 00:39:55;;;;;;;37.98;14.05;;;;;;;7.06;100.00;102015.00;1740505;82;20880;-91
2021/09/09 00:42:21;;;;;;;38.38;13.78;;;;;;;7.08;100.00;102019.63;1740543;82;21025;-90
2021/09/09 00:44:47;;;;;;;36.75;14.28;;;;;;;7.08;100.00;102020.97;1740524;81;21030;-92
2021/09/09 00:47:13;;;;;;;37.50;14.63;;;;;;;7.06;100.00;102015.00;1740463;82;21518;-91
2021/09/09 00:49:42;;;;;;;41.50;14.38;;;;;;;7.00;100.00;102011.77;1740215;82;21123;-92
2021/09/09 00:52:12;;;;;;;40.85;14.83;;;;;;;6.96;100.00;102009.19;1749066;82;21002;-92
2021/09/09 00:54:38;;;;;;;40.33;15.95;;;;;;;6.92;100.00;102007.42;1740576;82;21486;-90
2021/09/09 00:57:05;;;;;;;37.50;14.75;;;;;;;6.89;100.00;102009.69;1740547;82;21041;-91
2021/09/09 00:59:35;;;;;;;44.25;14.10;;;;;;;6.90;100.00;102009.47;1740522;81;21027;-91
2021/09/09 01:02:03;;;;;;;41.05;14.83;;;;;;;6.89;100.00;102012.36;1740472;82;21127;-91
2021/09/09 01:04:29;;;;;;;39.13;14.68;;;;;;;6.85;100.00;102015.11;1740183;82;21066;-91
2021/09/09 01:06:57;;;;;;;38.75;14.20;;;;;;;6.82;100.00;102010.48;1740517;82;20976;-91
2021/09/09 01:09:23;;;;;;;36.70;13.22;;;;;;;6.87;100.00;102011.73;1719170;82;21059;-91
2021/09/09 01:11:50;;;;;;;30.25;12.47;;;;;;;6.83;100.00;102013.47;1738101;82;20873;-91
2021/09/09 01:14:18;;;;;;;31.73;11.88;;;;;;;6.80;100.00;102016.55;1739560;81;21089;-91
2021/09/09 01:16:46;;;;;;;30.55;12.25;;;;;;;6.75;100.00;102008.27;1740211;81;20980;-90
2021/09/09 01:19:14;;;;;;;32.35;13.18;;;;;;;6.69;100.00;102010.41;1740276;81;21089;-91
2021/09/09 01:21:40;;;;;;;38.88;14.05;;;;;;;6.68;100.00;102013.30;1740525;82;21491;-90
2021/09/09 01:24:20;;;;;;;38.48;13.38;;;;;;;6.61;100.00;102015.93;1743690;82;21063;-90
2021/09/09 01:27:00;;;;;;;38.35;13.03;;;;;;;6.56;100.00;102012.52;1736746;82;21899;-89
2021/09/09 01:29:31;;;;;;;29.50;12.00;;;;;;;6.57;100.00;102012.00;1722633;83;21504;-90
2021/09/09 01:31:58;;;;;;;33.40;11.40;;;;;;;6.58;100.00;102009.11;1715267;83;21629;-91
2021/09/09 01:34:25;;;;;;;33.98;12.75;;;;;;;6.53;100.00;102004.03;1715139;83;20952;-91
2021/09/09 01:36:52;;;;;;;32.88;11.45;;;;;;;6.58;100.00;102002.41;1715324;83;21003;-91
2021/09/09 01:39:18;;;;;;;21.70;10.38;;;;;;;6.60;100.00;102000.89;1715285;83;21161;-92
2021/09/09 01:41:44;;;;;;;25.50;10.68;;;;;;;6.60;100.00;101996.88;1715196;83;20952;-91
2021/09/09 01:44:10;;;;;;;32.67;11.22;;;;;;;6.57;100.00;101990.58;1715132;83;21666;-90
2021/09/09 01:46:36;;;;;;;28.80;11.68;;;;;;;6.56;100.00;101991.61;1715480;83;20912;-91
2021/09/09 01:49:03;;;;;;;27.13;10.23;;;;;;;6.55;100.00;101989.94;1715296;83;20896;-90
2021/09/09 01:51:29;;;;;;;26.00;10.05;;;;;;;6.55;100.00;101991.28;1715359;83;21110;-91
2021/09/09 01:53:55;;;;;;;23.20;9.53;;;;;;;6.56;100.00;101990.28;1715221;83;20951;-91
2021/09/09 01:56:21;;;;;;;21.55;9.58;;;;;;;6.60;100.00;101988.84;1711458;83;21011;-91
2021/09/09 01:58:48;;;;;;;20.55;7.80;;;;;;;6.58;100.00;101992.22;1715180;83;21114;-89
2021/09/09 02:01:15;;;;;;;19.42;8.30;;;;;;;6.54;100.00;101982.42;1715395;83;21059;-91
2021/09/09 02:03:41;;;;;;;23.12;9.25;;;;;;;6.55;100.00;101985.92;1685124;83;21168;-91
2021/09/09 02:06:07;;;;;;;25.80;9.35;;;;;;;6.52;100.00;101982.30;1715371;83;21157;-91
2021/09/09 02:08:33;;;;;;;20.10;8.38;;;;;;;6.50;100.00;101984.34;1715303;83;21078;-91
2021/09/09 02:10:59;;;;;;;19.25;8.13;;;;;;;6.47;100.00;101982.06;1715231;83;20959;-90
2021/09/09 02:13:25;;;;;;;19.07;7.85;;;;;;;6.46;100.00;101976.41;1715208;83;20893;-90
2021/09/09 02:15:51;;;;;;;18.40;7.05;;;;;;;6.47;100.00;101976.70;1715488;83;21142;-91
2021/09/09 02:18:17;;;;;;;15.18;6.25;;;;;;;6.50;100.00;101972.30;1715287;83;20893;-90
2021/09/09 02:20:42;;;;;;;16.93;6.50;;;;;;;6.50;100.00;101972.30;1715450;83;20888;-90
2021/09/09 02:23:08;;;;;;;17.37;6.87;;;;;;;6.48;100.00;101974.36;1715353;83;20877;-90
2021/09/09 02:25:34;;;;;;;15.63;6.47;;;;;;;6.44;100.00;101973.09;1715329;83;20897;-91
2021/09/09 02:28:00;;;;;;;11.70;5.70;;;;;;;6.43;100.00;101982.16;1715207;83;21123;-89
2021/09/09 02:30:27;;;;;;;10.98;5.65;;;;;;;6.41;100.00;101985.02;1691434;83;20970;-89
2021/09/09 02:32:54;;;;;;;14.58;6.15;;;;;;;6.35;100.00;101985.33;1733631;82;20970;-90
2021/09/09 02:35:20;;;;;;;17.85;6.17;;;;;;;6.32;100.00;101984.38;1721695;82;21490;-90
2021/09/09 02:37:45;;;;;;;15.45;5.80;;;;;;;6.28;100.00;101980.42;1743362;82;20919;-88
2021/09/09 02:40:12;;;;;;;15.58;6.33;;;;;;;6.28;100.00;101980.42;1740736;82;22017;-88
2021/09/09 02:42:39;;;;;;;16.02;5.87;;;;;;;6.29;100.00;101983.92;1740843;82;21030;-89
2021/09/09 02:45:07;;;;;;;15.83;5.97;;;;;;;6.26;100.00;101985.66;1740801;82;20932;-89
2021/09/09 02:47:32;;;;;;;15.98;6.33;;;;;;;6.27;100.00;101990.01;1740848;82;20937;-89
2021/09/09 02:49:58;;;;;;;13.70;4.95;;;;;;;6.26;100.00;101987.00;1738839;82;21640;-90
2021/09/09 02:52:24;;;;;;;14.47;5.42;;;;;;;6.23;100.00;101998.92;1738287;82;21099;-90
2021/09/09 02:54:50;;;;;;;12.75;6.05;;;;;;;6.21;100.00;101998.31;1740350;82;20996;-88
2021/09/09 02:57:16;;;;;;;15.50;6.70;;;;;;;6.20;100.00;102001.98;1719717;82;20840;-89
2021/09/09 02:59:42;;;;;;;13.70;5.95;;;;;;;6.15;100.00;101992.41;1740573;82;20935;-89
2021/09/09 03:02:08;;;;;;;8.73;4.75;;;;;;;6.18;100.00;101989.33;1740595;82;20883;-89
2021/09/09 03:04:33;;;;;;;13.88;6.05;;;;;;;6.18;100.00;101988.48;1740452;82;21058;-86
2021/09/09 03:06:59;;;;;;;15.65;6.20;;;;;;;6.14;100.00;101986.71;1740468;81;21609;-88
2021/09/09 03:09:25;;;;;;;14.30;6.47;;;;;;;6.16;100.00;101991.37;1740172;82;20954;-88
2021/09/09 03:11:51;;;;;;;18.45;7.08;;;;;;;6.14;100.00;101988.88;1740670;82;20868;-88
2021/09/09 03:14:17;;;;;;;14.53;6.40;;;;;;;6.04;100.00;101968.34;1740545;82;20888;-89
2021/09/09 03:16:43;;;;;;;14.58;6.33;;;;;;;6.14;100.00;101988.05;1682917;84;21830;-89
2021/09/09 03:19:09;;;;;;;12.93;5.97;;;;;;;6.17;100.00;101994.35;1683025;85;21535;-89
2021/09/09 03:21:36;;;;;;;16.12;6.40;;;;;;;6.21;100.00;101995.63;1684134;85;21109;-88
2021/09/09 03:24:02;;;;;;;17.25;6.50;;;;;;;6.26;100.00;102001.20;1683548;85;21063;-89
2021/09/09 03:26:27;;;;;;;14.33;6.08;;;;;;;6.31;100.00;102001.45;1684107;85;20928;-89
2021/09/09 03:28:53;;;;;;;13.98;5.70;;;;;;;6.31;100.00;102001.45;1683070;85;21090;-88
2021/09/09 03:31:19;;;;;;;17.82;6.10;;;;;;;6.29;100.00;101998.12;1683114;85;20896;-87
2021/09/09 03:33:45;;;;;;;14.65;5.42;;;;;;;6.32;100.00;101996.43;1684093;85;21263;-88
2021/09/09 03:36:11;;;;;;;16.15;5.62;;;;;;;6.48;100.00;102006.50;1683824;85;20940;-88
2021/09/09 03:38:37;;;;;;;18.37;5.72;;;;;;;6.48;100.00;102006.50;1683137;85;20896;-89
2021/09/09 03:41:03;;;;;;;16.55;6.70;;;;;;;6.52;100.00;102006.41;1704345;82;21940;-89
2021/09/09 03:43:29;;;;;;;16.12;6.00;;;;;;;6.54;100.00;102016.42;1738086;81;20939;-90
2021/09/09 03:45:55;;;;;;;14.05;6.00;;;;;;;6.57;100.00;102011.48;1719174;82;20841;-89
2021/09/09 03:48:21;;;;;;;18.65;6.40;;;;;;;6.73;100.00;102021.03;1739974;82;21569;-89
2021/09/09 03:50:47;;;;;;;20.05;6.65;;;;;;;6.81;100.00;102015.51;1740197;82;20856;-88
2021/09/09 03:53:12;;;;;;;16.45;6.50;;;;;;;6.86;100.00;102020.28;1718830;82;20872;-88
2021/09/09 03:55:39;;;;;;;17.60;7.20;;;;;;;6.93;100.00;102019.78;1738120;82;21667;-88
2021/09/09 03:58:05;;;;;;;18.42;6.70;;;;;;;6.99;100.00;102023.00;1738106;82;21530;-89
2021/09/09 04:00:31;;;;;;;17.17;6.67;;;;;;;7.09;100.00;102028.01;1739962;82;21523;-89
2021/09/09 04:02:59;;;;;;;14.63;5.83;;;;;;;7.27;100.00;102024.76;1740523;82;21022;-89
2021/09/09 04:05:25;;;;;;;19.27;7.03;;;;;;;7.54;100.00;102020.78;1740864;82;20968;-90
2021/09/09 04:07:51;;;;;;;16.12;6.47;;;;;;;8.08;100.00;102023.27;1740226;82;20971;-90
2021/09/09 04:10:17;;;;;;;20.88;7.05;;;;;;;9.17;100.00;102015.53;1740579;82;21640;-90
2021/09/09 04:12:43;;;;;;;14.63;6.12;;;;;;;10.27;100.00;102007.89;1740580;82;20865;-90
2021/09/09 04:15:10;;;;;;;19.95;6.60;;;;;;;11.36;100.00;102006.13;1740583;82;20880;-90
2021/09/09 04:17:36;;;;;;;15.35;6.33;;;;;;;12.40;100.00;102011.06;1740534;81;21149;-90
2021/09/09 04:20:04;;;;;;;15.65;6.75;;;;;;;13.44;100.00;101997.97;1740493;81;20970;-90
2021/09/09 04:22:30;;;;;;;18.35;6.47;;;;;;;14.47;100.00;101997.13;1740573;82;21045;-90
2021/09/09 04:24:56;;;;;;;24.95;7.10;;;;;;;15.25;100.00;101992.87;1740551;82;21565;-88
2021/09/09 04:27:23;;;;;;;16.05;7.30;;;;;;;15.80;100.00;101989.04;1740320;82;21034;-89
2021/09/09 04:29:51;;;;;;;15.98;6.28;;;;;;;16.51;100.00;101998.17;1740268;82;21435;-88
2021/09/09 04:32:18;;;;;;;15.28;7.08;;;;;;;17.15;100.00;101997.06;1740499;81;21495;-89
2021/09/09 04:34:43;;;;;;;20.35;7.72;;;;;;;17.56;100.00;101989.45;1740442;82;21011;-90
2021/09/09 04:37:09;;;;;;;16.12;8.13;;;;;;;17.92;100.00;101993.02;1743844;82;20942;-89
2021/09/09 04:39:35;;;;;;;16.93;7.50;;;;;;;18.21;98.94;101994.61;1740406;82;20979;-90
2021/09/09 04:42:02;;;;;;;17.17;7.40;;;;;;;18.60;96.49;101989.28;1740548;82;21867;-90
2021/09/09 04:44:27;;;;;;;26.00;7.78;;;;;;;19.20;93.23;101992.53;1740375;82;21022;-90
2021/09/09 04:46:53;;;;;;;18.20;7.70;;;;;;;19.89;89.45;101991.46;1740482;82;20943;-91
2021/09/09 04:49:19;;;;;;;18.23;7.62;;;;;;;20.70;82.68;101993.59;1744191;81;20974;-90
2021/09/09 04:51:45;;;;;;;28.20;8.10;;;;;;;21.43;75.36;101983.50;1740760;82;21029;-90
2021/09/09 04:54:11;;;;;;;22.95;7.97;;;;;;;22.26;71.67;101991.11;1740541;82;21124;-91
2021/09/09 04:56:37;;;;;;;17.70;8.20;;;;;;;23.23;66.78;101993.98;1740480;82;20884;-91
2021/09/09 04:59:03;;;;;;;16.62;7.90;;;;;;;23.82;60.41;101993.92;1740478;82;21672;-91
2021/09/09 05:01:29;;;;;;;18.95;8.48;;;;;;;24.93;58.01;101993.83;1740492;81;20900;-91
2021/09/09 05:03:55;;;;;;;16.62;7.75;;;;;;;25.88;52.89;101994.33;1740444;82;20984;-91
2021/09/09 05:06:21;;;;;;;15.53;7.58;;;;;;;26.95;50.41;101984.84;1740362;82;21077;-92
2021/09/09 05:08:47;;;;;;;20.02;8.18;;;;;;;27.74;45.04;101988.29;1720341;82;20959;-91
2021/09/09 05:11:16;;;;;;;24.25;7.95;;;;;;;28.01;43.61;101989.05;1740897;82;20991;-92
2021/09/09 05:13:40;;;;;;;17.57;7.95;;;;;;;28.24;42.03;101983.06;1740178;82;21504;-90
2021/09/09 05:16:06;;;;;;;17.77;9.43;;;;;;;28.65;41.10;101982.56;1740760;82;20963;-91
2021/09/09 05:18:32;;;;;;;17.30;9.43;;;;;;;28.88;39.71;101961.46;1740362;82;21187;-90
2021/09/09 05:20:58;;;;;;;19.55;10.95;;;;;;;29.56;38.50;101970.91;1740597;81;21047;-89
2021/09/09 05:23:25;;;;;;;21.90;12.28;;;;;;;29.95;37.23;101971.16;1740824;81;21436;-89
2021/09/09 05:25:52;;;;;;;24.77;13.32;;;;;;;30.29;36.71;101966.24;1740354;82;20979;-90
2021/09/09 05:28:18;;;;;;;22.00;10.53;;;;;;;30.48;35.30;101963.31;1740779;81;20998;-89
2021/09/09 05:30:44;;;;;;;27.87;10.10;;;;;;;30.70;34.90;101961.79;1740705;82;21108;-90
2021/09/09 05:33:10;;;;;;;26.40;11.15;;;;;;;31.19;34.33;101964.83;1740396;82;21043;-89
2021/09/09 05:35:36;;;;;;;40.35;16.62;;;;;;;31.53;31.91;101960.90;1740536;82;20982;-90
2021/09/09 05:38:01;;;;;;;37.28;17.07;;;;;;;31.71;32.63;101965.98;1740716;81;20840;-89
2021/09/09 05:40:27;;;;;;;39.98;16.60;;;;;;;32.20;32.63;101963.84;1740683;82;21624;-90
2021/09/09 05:42:53;;;;;;;38.88;15.95;;;;;;;32.71;31.93;101960.59;1740568;82;21883;-90
2021/09/09 05:45:19;;;;;;;39.38;17.12;;;;;;;33.16;31.43;101962.37;1740633;82;20891;-90
2021/09/09 05:47:45;;;;;;;45.40;17.45;;;;;;;33.79;30.33;101958.41;1740443;82;20963;-89
2021/09/09 05:50:11;;;;;;;48.02;18.82;;;;;;;33.79;28.85;101955.62;1740429;82;20943;-89
2021/09/09 05:52:37;;;;;;;46.80;19.17;;;;;;;33.98;28.63;101958.78;1734542;81;20964;-90
2021/09/09 05:55:04;;;;;;;48.02;17.75;;;;;;;34.26;27.61;101956.19;1709535;83;20998;-89
2021/09/09 05:57:30;;;;;;;35.43;16.70;;;;;;;34.20;27.32;101961.95;1709425;83;20987;-90
2021/09/09 05:59:56;;;;;;;35.63;16.05;;;;;;;34.21;26.90;101960.77;1709493;83;20995;-90
2021/09/09 06:02:27;;;;;;;34.40;14.65;;;;;;;34.48;27.42;101959.13;1704126;84;20836;-89
2021/09/09 06:04:51;;;;;;;26.93;13.20;;;;;;;35.10;26.02;101954.05;1706285;84;21028;-90
2021/09/09 06:07:17;;;;;;;30.85;13.48;;;;;;;35.62;25.85;101954.53;1709366;84;21087;-89
2021/09/09 06:09:43;;;;;;;40.52;13.78;;;;;;;36.21;25.06;101954.11;1709350;84;21019;-88
2021/09/09 06:12:10;;;;;;;29.87;13.70;;;;;;;36.72;24.11;101947.97;1709504;84;20881;-89
2021/09/09 06:14:36;;;;;;;34.30;13.60;;;;;;;37.15;23.22;101952.58;1709467;83;21003;-89
2021/09/09 06:17:03;;;;;;;37.98;15.30;;;;;;;37.39;22.77;101947.41;1709385;83;20999;-88
2021/09/09 06:19:29;;;;;;;34.15;15.10;;;;;;;37.77;22.09;101952.34;1709548;83;22008;-89
2021/09/09 06:21:55;;;;;;;36.55;16.12;;;;;;;38.22;22.68;101947.52;1709413;84;20936;-89
2021/09/09 06:24:21;;;;;;;30.05;15.75;;;;;;;38.61;21.84;101947.69;1709405;83;21011;-88
2021/09/09 06:26:47;;;;;;;37.15;15.23;;;;;;;38.75;21.87;101950.33;1715086;80;20895;-88
2021/09/09 06:29:13;;;;;;;33.85;13.72;;;;;;;38.87;21.61;101943.97;1756280;80;21027;-88
2021/09/09 06:31:38;;;;;;;30.75;12.37;;;;;;;39.39;22.04;101940.78;1750318;80;21076;-89
2021/09/09 06:34:04;;;;;;;19.62;10.88;;;;;;;40.05;20.41;101940.06;1732474;80;21089;-88
2021/09/09 06:36:30;;;;;;;24.70;10.68;;;;;;;40.39;19.14;101941.87;1710175;84;20975;-88
2021/09/09 06:38:56;;;;;;;23.27;10.32;;;;;;;40.51;18.78;101946.86;1741802;80;21613;-88
2021/09/09 06:41:22;;;;;;;21.20;10.65;;;;;;;40.82;19.25;101944.59;1717469;80;21015;-88
2021/09/09 06:43:48;;;;;;;19.75;9.15;;;;;;;41.20;18.65;101941.95;1710326;83;21091;-88
2021/09/09 06:46:14;;;;;;;21.50;10.35;;;;;;;41.49;18.01;101943.48;1721499;80;20876;-88
2021/09/09 06:48:39;;;;;;;20.45;9.80;;;;;;;41.75;17.29;101948.06;1773275;80;20966;-89
2021/09/09 06:51:05;;;;;;;18.35;10.53;;;;;;;41.39;17.35;101942.50;1769857;80;20885;-89
2021/09/09 06:53:32;;;;;;;16.20;8.53;;;;;;;41.51;17.51;101950.30;1766295;81;21578;-88
2021/09/09 06:55:58;;;;;;;19.05;9.65;;;;;;;41.73;16.57;101953.36;1765909;81;21125;-88
2021/09/09 06:58:24;;;;;;;19.05;9.50;;;;;;;41.37;16.63;101942.13;1737420;80;21066;-88
2021/09/09 07:00:50;;;;;;;20.52;9.90;;;;;;;41.65;16.88;101944.08;1774899;80;21047;-89
2021/09/09 07:03:17;;;;;;;16.17;8.15;;;;;;;41.99;16.63;101943.62;1733572;81;20987;-89
2021/09/09 07:05:44;;;;;;;13.60;7.50;;;;;;;42.61;16.69;101942.86;1720391;83;21028;-89
2021/09/09 07:08:10;;;;;;;11.63;7.75;;;;;;;43.37;16.55;101946.22;1710063;83;21905;-88
2021/09/09 07:10:38;;;;;;;10.63;7.87;;;;;;;43.72;15.10;101945.03;1735757;80;20861;-88
2021/09/09 07:13:04;;;;;;;9.25;7.03;;;;;;;43.54;15.13;101943.44;1664226;83;21536;-89
2021/09/09 07:15:30;;;;;;;9.75;7.70;;;;;;;43.97;14.13;101939.11;1656791;86;21160;-88
2021/09/09 07:17:56;;;;;;;8.90;8.00;;;;;;;44.01;13.45;101938.97;1652491;86;20974;-88
2021/09/09 07:20:22;;;;;;;11.75;7.97;;;;;;;44.20;14.10;101945.75;1656889;86;21086;-86
2021/09/09 07:22:48;;;;;;;11.35;8.30;;;;;;;44.54;13.47;101944.75;1654747;86;21528;-86
2021/09/09 07:25:14;;;;;;;13.45;9.03;;;;;;;44.58;13.43;101946.19;1654500;86;21174;-86
2021/09/09 07:27:41;;;;;;;13.72;9.08;;;;;;;44.72;13.17;101944.05;1658333;85;21056;-87
2021/09/09 07:30:07;;;;;;;11.08;9.43;;;;;;;44.72;13.30;101944.05;1632421;85;21115;-86
2021/09/09 07:32:35;;;;;;;20.40;12.35;;;;;;;44.48;13.19;101939.48;1692285;84;21699;-88
2021/09/09 07:35:04;;;;;;;21.80;10.70;;;;;;;44.55;12.94;101934.95;1697090;84;21045;-87
2021/09/09 07:37:30;;;;;;;10.85;8.15;;;;;;;44.70;12.96;101935.19;1647532;87;21075;-87
2021/09/09 07:39:56;;;;;;;10.05;8.33;;;;;;;45.09;13.22;101933.62;1647553;87;21051;-87
2021/09/09 07:42:22;;;;;;;13.58;7.83;;;;;;;45.29;13.00;101934.66;1653324;86;21015;-88
2021/09/09 07:44:49;;;;;;;11.85;8.43;;;;;;;45.42;13.28;101929.64;1652439;86;20968;-88
2021/09/09 07:47:15;;;;;;;11.28;8.73;;;;;;;45.38;13.51;101928.19;1655802;86;21109;-87
2021/09/09 07:49:42;;;;;;;13.43;7.97;;;;;;;45.47;12.76;101927.56;1641841;86;21030;-87
2021/09/09 07:52:07;;;;;;;9.33;8.43;;;;;;;45.41;12.94;101925.18;1632612;87;21046;-87
2021/09/09 07:54:34;;;;;;;10.78;8.75;;;;;;;45.66;12.53;101925.56;1633232;87;21050;-87
2021/09/09 07:57:00;;;;;;;12.50;9.13;;;;;;;45.93;12.09;101918.31;1633144;87;21781;-87
2021/09/09 07:59:26;;;;;;;15.55;9.80;;;;;;;46.17;11.96;101922.70;1633085;87;21533;-86
2021/09/09 08:01:52;;;;;;;11.95;9.70;;;;;;;46.00;12.01;101921.61;1633047;87;21046;-87
2021/09/09 08:04:19;;;;;;;10.85;9.28;;;;;;;45.62;12.38;101912.73;1633087;87;20907;-86
2021/09/09 08:06:51;;;;;;;11.10;9.25;;;;;;;45.51;12.12;101916.86;1633041;87;21131;-88
2021/09/09 08:09:17;;;;;;;9.13;8.23;;;;;;;45.44;12.12;101918.54;1646531;87;21803;-87
2021/09/09 08:11:43;;;;;;;11.75;8.75;;;;;;;45.55;11.95;101918.91;1647077;87;20912;-88
2021/09/09 08:14:09;;;;;;;8.58;7.47;;;;;;;46.06;11.64;101915.27;1639562;87;21822;-87
2021/09/09 08:16:38;;;;;;;12.13;8.20;;;;;;;45.98;11.46;101909.13;1677075;84;20991;-87
2021/09/09 08:19:05;;;;;;;12.90;8.55;;;;;;;45.60;11.12;101905.31;1704431;84;20994;-86
2021/09/09 08:21:31;;;;;;;8.83;7.17;;;;;;;44.17;11.80;101905.47;1704103;84;21206;-85
2021/09/09 08:23:57;;;;;;;15.30;8.00;;;;;;;43.99;12.70;101906.13;1704186;84;21093;-84
2021/09/09 08:26:23;;;;;;;11.70;7.60;;;;;;;44.25;12.47;101907.42;1703339;83;20883;-89
2021/09/09 08:28:49;;;;;;;13.05;7.85;;;;;;;44.48;12.44;101904.75;1697503;84;21071;-87
2021/09/09 08:31:15;;;;;;;10.80;6.80;;;;;;;44.27;12.42;101906.94;1697399;84;20892;-87
2021/09/09 08:33:42;;;;;;;11.88;7.90;;;;;;;44.41;12.33;101903.59;1697398;84;21165;-87
2021/09/09 08:36:12;;;;;;;9.85;7.65;;;;;;;44.75;12.04;101903.32;1697079;84;21341;-88
2021/09/09 08:38:42;;;;;;;9.60;7.33;;;;;;;44.50;11.94;101902.20;1701746;83;21498;-87
2021/09/09 08:41:08;;;;;;;10.95;6.55;;;;;;;44.52;12.07;101900.34;1724894;82;21074;-87
2021/09/09 08:43:35;;;;;;;7.08;6.37;;;;;;;44.64;11.70;101905.13;1749735;80;20987;-88
2021/09/09 08:46:03;;;;;;;8.50;6.20;;;;;;;45.03;11.64;101893.59;1738508;80;21958;-89
2021/09/09 08:48:31;;;;;;;10.55;6.45;;;;;;;45.25;10.63;101891.32;1746672;82;21031;-85
2021/09/09 08:50:57;;;;;;;6.85;6.12;;;;;;;45.01;11.23;101887.59;1743966;81;21031;-88
2021/09/09 08:53:24;;;;;;;12.05;6.55;;;;;;;45.50;10.60;101884.53;1742838;82;21063;-90
2021/09/09 08:55:50;;;;;;;7.67;5.25;;;;;;;45.13;10.38;101886.55;1739091;81;21610;-87
2021/09/09 08:58:19;;;;;;;8.90;5.75;;;;;;;44.80;11.07;101885.61;1738849;82;21084;-87
2021/09/09 09:01:09;;;;;;;8.10;5.58;;;;;;;44.08;10.91;101877.63;1738862;81;20980;-88
2021/09/09 09:03:57;;;;;;;12.07;5.87;;;;;;;43.10;11.81;101883.00;1749478;82;21032;-87
2021/09/09 09:06:27;;;;;;;10.53;5.65;;;;;;;43.39;12.28;101880.64;1743865;82;21050;-89
2021/09/09 09:08:57;;;;;;;6.25;5.50;;;;;;;43.80;12.14;101868.88;1739147;81;21039;-90
2021/09/09 09:11:27;;;;;;;9.53;5.97;;;;;;;43.34;12.02;101874.75;1739120;82;21142;-91
2021/09/09 09:13:54;;;;;;;9.05;5.50;;;;;;;43.26;12.34;101862.20;1678904;85;21420;-90
2021/09/09 09:16:23;;;;;;;9.18;5.20;;;;;;;43.41;12.08;101861.09;1678732;85;21088;-89
2021/09/09 09:18:51;;;;;;;11.28;4.85;;;;;;;43.20;11.75;101853.32;1679145;85;21078;-93
2021/09/09 09:21:20;;;;;;;10.03;4.90;;;;;;;42.73;12.45;101854.03;1680712;83;21510;-90
2021/09/09 09:23:50;;;;;;;7.78;4.85;;;;;;;42.77;12.73;101854.10;1683402;85;22096;-89
2021/09/09 09:26:17;;;;;;;7.30;5.12;;;;;;;42.45;12.63;101850.01;1635491;87;21482;-91
2021/09/09 09:28:48;;;;;;;10.03;4.03;;;;;;;42.04;12.81;101845.34;1630877;87;21672;-90
2021/09/09 09:31:28;;;;;;;6.30;4.42;;;;;;;41.46;12.48;101850.31;1631276;87;28351;-89
2021/09/09 09:34:00;;;;;;;8.85;4.05;;;;;;;40.42;13.00;101850.57;1631160;88;21058;-90
2021/09/09 09:36:33;;;;;;;6.08;3.83;;;;;;;39.97;13.32;101835.53;1630938;87;21157;-88
2021/09/09 09:39:16;;;;;;;6.83;3.77;;;;;;;38.62;13.58;101832.33;1630763;88;21046;-87
2021/09/09 09:41:56;;;;;;;14.50;4.15;;;;;;;35.86;14.96;101838.70;1622670;88;21075;-87
2021/09/09 09:44:38;;;;;;;11.73;3.80;;;;;;;35.00;15.63;101835.89;1631021;88;21129;-88
2021/09/09 09:47:20;;;;;;;10.05;3.83;;;;;;;34.83;16.30;101835.27;1631889;88;21518;-84
2021/09/09 09:49:49;;;;;;;8.88;3.90;;;;;;;34.84;16.14;101834.66;1632029;88;22011;-87
2021/09/09 09:52:26;;;;;;;6.33;3.37;;;;;;;35.08;17.07;101833.13;1577546;89;21597;-85
2021/09/09 09:54:59;;;;;;;8.45;3.27;;;;;;;35.20;16.16;101831.32;1582210;90;21083;-86
2021/09/09 09:57:27;;;;;;;6.00;3.33;;;;;;;34.79;15.83;101826.83;1594859;89;21098;-89
2021/09/09 09:59:54;;;;;;;8.23;3.25;;;;;;;34.53;16.54;101827.13;1596742;89;21557;-91
2021/09/09 10:02:20;;;;;;;5.85;3.12;;;;;;;34.82;17.34;101821.83;1596867;89;21174;-89
2021/09/09 10:04:49;;;;;;;6.33;3.12;;;;;;;34.89;16.89;101819.66;1593398;89;21083;-90
2021/09/09 10:07:17;;;;;;;10.32;3.15;;;;;;;34.88;16.87;101822.24;1596844;89;21555;-89
2021/09/09 10:09:44;;;;;;;6.17;3.22;;;;;;;34.57;16.51;101821.80;1596794;89;21050;-90
2021/09/09 10:12:12;;;;;;;4.85;2.80;;;;;;;34.20;16.78;101818.42;1596750;89;21071;-88
2021/09/09 10:14:45;;;;;;;5.78;2.52;;;;;;;33.85;17.28;101815.01;1565110;89;21272;-89
2021/09/09 10:17:12;;;;;;;9.50;3.40;;;;;;;33.53;17.53;101812.00;1580628;89;21053;-89
2021/09/09 10:19:38;;;;;;;8.80;2.80;;;;;;;33.22;18.16;101814.74;1598143;89;21068;-91
2021/09/09 10:22:18;;;;;;;6.00;2.60;;;;;;;32.98;18.12;101803.53;1600409;86;20985;-91
2021/09/09 10:24:53;;;;;;;7.25;3.30;;;;;;;32.73;18.12;101801.87;1657981;86;21120;-90
2021/09/09 10:27:32;;;;;;;9.23;2.77;;;;;;;32.60;18.53;101802.73;1623520;88;21969;-88
2021/09/09 10:32:43;;;;;;;6.70;2.72;;;;;;;32.10;19.58;101789.55;1615415;88;21045;-90
2021/09/09 10:35:22;;;;;;;5.25;2.72;;;;;;;32.12;19.03;101795.54;1611861;88;21064;-92
2021/09/09 10:38:00;;;;;;;6.42;2.90;;;;;;;31.98;18.56;101787.01;1616095;88;21624;-87
2021/09/09 10:40:33;;;;;;;5.20;2.47;;;;;;;31.90;19.45;101792.47;1618904;88;21076;-90
2021/09/09 10:43:06;;;;;;;12.03;3.10;;;;;;;31.74;18.88;101783.47;1619136;88;21059;-88
2021/09/09 10:45:37;;;;;;;7.60;2.98;;;;;;;31.54;18.51;101786.95;1619302;88;26016;-88
2021/09/09 10:48:10;;;;;;;7.62;2.60;;;;;;;31.45;18.61;101783.63;1620618;87;21067;-88
2021/09/09 10:50:37;;;;;;;7.15;3.33;;;;;;;31.48;18.98;101789.05;1645444;87;21574;-87
2021/09/09 10:53:12;;;;;;;8.45;3.55;;;;;;;31.46;19.31;101772.69;1634128;87;21822;-89
2021/09/09 10:55:47;;;;;;;11.78;3.47;;;;;;;31.56;19.58;101774.02;1634127;87;21155;-88
2021/09/09 10:58:25;;;;;;;9.28;3.65;;;;;;;31.42;19.28;101773.23;1611351;87;21078;-86
2021/09/09 11:01:05;;;;;;;9.30;4.22;;;;;;;31.32;19.37;101765.47;1619143;87;21469;-87
2021/09/09 11:03:48;;;;;;;11.00;4.10;;;;;;;31.12;18.58;101759.99;1632472;87;21110;-88
2021/09/09 11:06:28;;;;;;;10.90;4.42;;;;;;;30.83;18.91;101751.73;1623086;87;21111;-89
2021/09/09 11:08:57;;;;;;;11.22;4.85;;;;;;;30.79;19.60;101749.46;1591119;90;21159;-86
2021/09/09 11:11:29;;;;;;;8.45;4.50;;;;;;;30.77;19.84;101737.29;1636472;86;21053;-88
2021/09/09 11:14:03;;;;;;;11.43;4.47;;;;;;;30.69;20.40;101738.33;1612073;87;21125;-89
2021/09/09 11:16:35;;;;;;;15.32;4.60;;;;;;;30.54;20.57;101736.47;1607205;89;21069;-87
2021/09/09 11:19:05;;;;;;;9.37;4.63;;;;;;;30.48;20.97;101733.77;1607773;87;21790;-89
2021/09/09 11:21:37;;;;;;;11.48;4.80;;;;;;;30.31;21.08;101730.27;1613543;87;21057;-92